^^
Station Historical Data
 
Daily Summary for December 22, 2014 Units:  English    Metric   Both
« Previous Day
Next Day »
Daily Weekly Monthly Yearly Custom
  Current: High: Low: Average:
Temperature: 33.0 °F 33.0 °F 30.8 °F 31.8 °F
Dew Point: 29.3 °F 29.4 °F 28.1 °F 28.8 °F
Humidity: 86% 90% 86% 89%
Wind Speed: 3.0mph 6.0mph 2.0mph 2.8mph
Wind Gust: 7.0mph 12.0mph - -
WindESE - - ESE
Pressure: 29.91 in 30.01 in 29.91 in -
Precipitation: 0.00 in      
Historical Graphs
 
 
Tabular Data for December 22, 2014
Time Temperature Dew Point Pressure Wind Wind Speed Wind Gust Humidity Rainfall Rate (Hourly)
00:09 31.9 °F 29.0 °F 30.01 in ESE 5.0 mph 7.0 mph 89% 0.00 in
00:19 31.9 °F 29.0 °F 30.01 in SE 2.0 mph 12.0 mph 89% 0.00 in
00:29 31.9 °F 29.0 °F 30.01 in SE 5.0 mph 8.0 mph 89% 0.00 in
00:39 32.0 °F 29.1 °F 30.01 in SE 3.0 mph 8.0 mph 89% 0.00 in
00:49 32.0 °F 29.1 °F 30.01 in SE 3.0 mph 7.0 mph 89% 0.00 in
00:59 32.0 °F 29.1 °F 30.00 in SE 6.0 mph 10.0 mph 89% 0.00 in
01:09 31.9 °F 29.0 °F 30.00 in SE 3.0 mph 8.0 mph 89% 0.00 in
01:19 31.8 °F 28.9 °F 30.00 in SE 2.0 mph 9.0 mph 89% 0.00 in
01:29 31.7 °F 28.8 °F 30.01 in SE 3.0 mph 7.0 mph 89% 0.00 in
01:39 31.7 °F 28.8 °F 30.01 in SE 3.0 mph 9.0 mph 89% 0.00 in
01:49 31.7 °F 28.8 °F 30.00 in SE 3.0 mph 8.0 mph 89% 0.00 in
01:59 31.7 °F 28.8 °F 30.00 in SE 2.0 mph 6.0 mph 89% 0.00 in
02:09 31.5 °F 28.6 °F 30.00 in SE 3.0 mph 12.0 mph 89% 0.00 in
02:19 31.4 °F 28.8 °F 30.00 in SE 2.0 mph 5.0 mph 90% 0.00 in
02:29 31.4 °F 28.5 °F 30.00 in SE 3.0 mph 7.0 mph 89% 0.00 in
02:39 31.4 °F 28.5 °F 30.00 in SE 2.0 mph 7.0 mph 89% 0.00 in
02:49 31.4 °F 28.5 °F 29.99 in ESE 3.0 mph 5.0 mph 89% 0.00 in
02:59 31.2 °F 28.3 °F 29.99 in ESE 3.0 mph 6.0 mph 89% 0.00 in
03:09 30.9 °F 28.3 °F 29.98 in ESE 2.0 mph 7.0 mph 90% 0.00 in
03:19 30.8 °F 28.2 °F 29.98 in ESE 3.0 mph 8.0 mph 90% 0.00 in
03:29 30.8 °F 28.2 °F 29.98 in ESE 3.0 mph 5.0 mph 90% 0.00 in
03:39 30.9 °F 28.3 °F 29.98 in SE 2.0 mph 5.0 mph 90% 0.00 in
03:49 31.0 °F 28.4 °F 29.98 in SE 3.0 mph 6.0 mph 90% 0.00 in
03:59 31.0 °F 28.1 °F 29.98 in SE 2.0 mph 6.0 mph 89% 0.00 in
04:09 31.1 °F 28.2 °F 29.98 in SE 2.0 mph 4.0 mph 89% 0.00 in
04:19 31.3 °F 28.4 °F 29.97 in SE 2.0 mph 5.0 mph 89% 0.00 in
04:29 31.4 °F 28.5 °F 29.97 in ESE 2.0 mph 7.0 mph 89% 0.00 in
04:39 31.5 °F 28.6 °F 29.97 in SE 2.0 mph 5.0 mph 89% 0.00 in
04:49 31.6 °F 28.7 °F 29.97 in SE 2.0 mph 4.0 mph 89% 0.00 in
04:59 31.7 °F 28.8 °F 29.97 in SE 2.0 mph 4.0 mph 89% 0.00 in
05:09 31.7 °F 28.8 °F 29.97 in ESE 2.0 mph 6.0 mph 89% 0.00 in
05:19 31.8 °F 28.9 °F 29.97 in ESE 2.0 mph 6.0 mph 89% 0.00 in
05:29 31.9 °F 29.0 °F 29.96 in ESE 3.0 mph 7.0 mph 89% 0.00 in
05:39 31.9 °F 29.0 °F 29.95 in ESE 2.0 mph 6.0 mph 89% 0.00 in
05:49 32.0 °F 29.1 °F 29.95 in ESE 3.0 mph 8.0 mph 89% 0.00 in
05:59 32.0 °F 29.1 °F 29.95 in ESE 2.0 mph 7.0 mph 89% 0.00 in
06:09 32.0 °F 29.1 °F 29.95 in ESE 3.0 mph 6.0 mph 89% 0.00 in
06:19 32.1 °F 29.2 °F 29.95 in ESE 2.0 mph 8.0 mph 89% 0.00 in
06:29 32.1 °F 28.9 °F 29.95 in ESE 3.0 mph 7.0 mph 88% 0.00 in
06:39 32.2 °F 29.0 °F 29.95 in ESE 3.0 mph 7.0 mph 88% 0.00 in
06:49 32.3 °F 29.1 °F 29.95 in ESE 3.0 mph 7.0 mph 88% 0.00 in
06:59 32.3 °F 29.2 °F 29.94 in ESE 3.0 mph 7.0 mph 88% 0.00 in
07:09 32.4 °F 29.2 °F 29.94 in East 3.0 mph 7.0 mph 88% 0.00 in
07:19 32.5 °F 29.3 °F 29.94 in ESE 3.0 mph 8.0 mph 88% 0.00 in
07:29 32.6 °F 29.4 °F 29.92 in ESE 5.0 mph 8.0 mph 88% 0.00 in
07:39 32.6 °F 29.4 °F 29.91 in ESE 3.0 mph 7.0 mph 88% 0.00 in
07:49 32.7 °F 29.3 °F 29.91 in ESE 3.0 mph 7.0 mph 87% 0.00 in
07:59 32.9 °F 29.4 °F 29.91 in ESE 3.0 mph 8.0 mph 87% 0.00 in
08:09 33.0 °F 29.3 °F 29.91 in ESE 3.0 mph 7.0 mph 86% 0.00 in
jolietwx - Weather
Compliments of Weather Underground